Time;durP1;ratioP1;P1;durP2;ratioP2;P2;SDS_P1;SDS_P2;PMS_P1;PMS_P2;Temp;Humidity;BMP_temperature;BMP_pressure;BME280_temperature;BME280_humidity;BME280_pressure;Samples;Min_cycle;Max_cycle;Signal;HPM_P1;HPM_P2
2022/01/30 00:01:01;;;;;;;5.40;0.60;;;;;;;6.98;71.88;99330.48;105741;1271;25788;-57
2022/01/30 00:03:34;;;;;;;4.40;0.40;;;;;;;6.98;70.74;99317.56;105831;1270;22571;-59
2022/01/30 00:06:06;;;;;;;7.50;0.70;;;;;;;6.98;69.88;99313.67;105972;1271;22573;-55
2022/01/30 00:08:37;;;;;;;13.20;0.80;;;;;;;6.94;69.91;99313.39;105918;1271;22539;-59
2022/01/30 00:11:14;;;;;;;7.50;0.70;;;;;;;6.89;69.45;99300.79;105752;1271;22645;-58
2022/01/30 00:13:45;;;;;;;11.00;1.50;;;;;;;6.83;68.82;99297.45;105695;1271;25317;-57
2022/01/30 00:16:19;;;;;;;5.10;0.60;;;;;;;6.78;68.27;99300.30;106259;1270;22544;-58
2022/01/30 00:18:58;;;;;;;11.50;0.70;;;;;;;6.72;68.18;99301.27;105688;1271;24371;-58
2022/01/30 00:21:37;;;;;;;9.10;0.90;;;;;;;6.68;67.26;99291.66;105612;1271;22613;-60
2022/01/30 00:24:14;;;;;;;8.70;0.80;;;;;;;6.66;67.87;99287.74;105727;1270;24535;-58
2022/01/30 00:26:47;;;;;;;5.10;0.60;;;;;;;6.60;68.33;99299.52;105633;1271;22622;-56
2022/01/30 00:29:18;;;;;;;9.00;0.80;;;;;;;6.51;68.66;99296.95;105676;1271;22548;-59
2022/01/30 00:31:49;;;;;;;10.70;0.70;;;;;;;6.43;69.21;99296.58;105580;1271;22570;-57
2022/01/30 00:34:21;;;;;;;13.40;1.10;;;;;;;6.35;68.72;99302.06;105678;1270;25271;-56
2022/01/30 00:36:52;;;;;;;6.80;0.50;;;;;;;6.32;68.72;99298.61;105761;1270;22557;-58
2022/01/30 00:39:23;;;;;;;7.90;0.70;;;;;;;6.28;68.75;99303.13;105695;1271;25274;-56
2022/01/30 00:41:54;;;;;;;9.90;0.90;;;;;;;6.25;68.28;99294.80;105810;1270;22715;-57
2022/01/30 00:44:27;;;;;;;7.10;0.80;;;;;;;6.22;68.52;99298.67;105632;1271;26377;-57
2022/01/30 00:46:59;;;;;;;9.70;1.30;;;;;;;6.18;68.52;99300.08;105595;1271;22553;-59
2022/01/30 00:49:30;;;;;;;7.30;0.70;;;;;;;6.12;68.81;99306.86;105732;1270;23066;-59
2022/01/30 00:52:03;;;;;;;6.10;0.50;;;;;;;6.06;69.10;99315.64;105520;1270;25335;-56
2022/01/30 00:54:34;;;;;;;8.10;0.80;;;;;;;6.01;68.96;99314.52;105648;1271;22586;-57
2022/01/30 00:57:06;;;;;;;10.10;0.60;;;;;;;5.99;69.07;99320.83;105815;1271;22915;-59
2022/01/30 00:59:37;;;;;;;13.00;1.60;;;;;;;5.98;68.92;99336.52;105891;1270;23970;-57
2022/01/30 01:02:08;;;;;;;8.50;1.50;;;;;;;5.99;68.95;99333.96;105742;1271;22729;-55
2022/01/30 01:04:40;;;;;;;5.90;0.60;;;;;;;5.98;68.42;99337.97;105698;1271;22541;-56
2022/01/30 01:07:17;;;;;;;10.80;0.90;;;;;;;5.99;68.13;99339.73;106046;1271;22828;-57
2022/01/30 01:09:57;;;;;;;13.10;0.90;;;;;;;6.02;67.85;99327.54;105838;1271;22577;-58
2022/01/30 01:12:58;;;;;;;6.80;0.70;;;;;;;6.04;67.74;99325.77;105694;1271;25375;-58
2022/01/30 01:24:04;;;;;;;9.10;1.10;;;;;;;6.06;67.15;99303.70;105613;1271;22544;-59
2022/01/30 01:26:37;;;;;;;10.00;0.90;;;;;;;6.06;66.41;99311.11;105660;1271;22594;-57
2022/01/30 01:29:15;;;;;;;13.60;0.90;;;;;;;6.10;64.69;99301.83;105746;1271;22562;-60
2022/01/30 01:31:46;;;;;;;12.20;1.00;;;;;;;6.17;64.80;99302.84;105971;1271;22540;-58
2022/01/30 01:34:31;;;;;;;12.50;1.20;;;;;;;6.20;64.74;99295.79;105678;1271;24238;-58
2022/01/30 01:37:02;;;;;;;12.50;0.80;;;;;;;6.21;64.08;99295.80;105791;1270;24210;-60
2022/01/30 01:39:34;;;;;;;9.00;1.00;;;;;;;6.22;64.06;99296.17;106111;1270;25533;-59
2022/01/30 01:42:06;;;;;;;12.80;0.90;;;;;;;6.22;63.99;99291.40;105786;1270;22578;-57
2022/01/30 01:44:41;;;;;;;14.10;0.90;;;;;;;6.23;63.84;99288.98;105796;1271;24100;-58
2022/01/30 01:47:15;;;;;;;21.60;1.40;;;;;;;6.23;64.68;99288.13;105960;1270;22987;-59
2022/01/30 01:49:49;;;;;;;9.10;0.80;;;;;;;6.20;65.01;99282.23;105713;1270;25485;-56
2022/01/30 01:52:23;;;;;;;14.70;1.30;;;;;;;6.17;64.72;99269.23;105786;1270;25267;-58
2022/01/30 01:54:57;;;;;;;11.50;1.10;;;;;;;6.16;64.51;99272.23;105597;1271;25276;-58
2022/01/30 01:57:29;;;;;;;10.80;1.00;;;;;;;6.15;64.83;99267.21;105430;1271;250841;-59
2022/01/30 02:00:01;;;;;;;12.90;0.90;;;;;;;6.12;64.83;99268.78;105709;1271;25566;-57
2022/01/30 02:02:32;;;;;;;11.20;1.30;;;;;;;6.11;64.95;99272.83;105879;1270;24279;-57
2022/01/30 02:05:05;;;;;;;14.50;1.80;;;;;;;6.09;65.17;99270.63;105729;1271;24326;-59
2022/01/30 02:10:29;;;;;;;16.10;1.70;;;;;;;6.02;64.92;99262.81;105434;1276;22547;-57
2022/01/30 02:13:16;;;;;;;16.00;1.40;;;;;;;5.99;64.58;99266.62;105634;1276;22548;-58
2022/01/30 02:24:28;;;;;;;15.00;1.00;;;;;;;5.93;65.46;99252.45;105549;1276;25283;-58
2022/01/30 02:27:00;;;;;;;12.20;1.10;;;;;;;5.91;65.43;99251.86;105493;1276;24315;-57
2022/01/30 02:29:31;;;;;;;11.30;1.10;;;;;;;5.91;65.53;99242.17;105632;1276;22743;-58
2022/01/30 02:32:02;;;;;;;9.60;0.80;;;;;;;5.91;65.18;99235.21;105367;1276;25319;-59
2022/01/30 02:34:34;;;;;;;6.60;0.70;;;;;;;5.90;64.74;99224.52;105333;1276;25338;-56
2022/01/30 02:37:06;;;;;;;13.60;1.60;;;;;;;5.92;64.27;99222.30;105350;1276;22534;-58
2022/01/30 02:39:37;;;;;;;9.30;1.10;;;;;;;5.94;63.91;99232.52;105478;1276;22583;-57
2022/01/30 02:42:13;;;;;;;12.80;1.50;;;;;;;5.96;63.02;99228.84;105491;1276;22538;-58
2022/01/30 02:44:50;;;;;;;13.00;1.10;;;;;;;6.00;61.86;99234.35;105549;1276;22546;-59
2022/01/30 02:47:26;;;;;;;11.70;0.90;;;;;;;6.03;62.23;99244.55;105333;1276;22550;-57
2022/01/30 02:50:18;;;;;;;13.70;1.20;;;;;;;6.05;62.45;99234.25;105803;1270;24320;-58
2022/01/30 02:52:56;;;;;;;14.40;1.00;;;;;;;6.03;63.12;99227.69;105628;1271;22562;-56
2022/01/30 02:55:28;;;;;;;13.50;1.00;;;;;;;6.00;63.27;99220.50;105700;1270;24332;-58
2022/01/30 02:57:59;;;;;;;10.70;0.80;;;;;;;5.96;63.07;99213.08;105784;1271;22582;-58
2022/01/30 03:00:30;;;;;;;9.50;0.90;;;;;;;5.93;63.36;99214.11;105797;1271;25328;-58
2022/01/30 03:03:01;;;;;;;16.90;1.00;;;;;;;5.90;63.06;99212.91;105993;1270;26784;-57
2022/01/30 03:05:32;;;;;;;13.80;0.70;;;;;;;5.88;63.16;99207.40;105990;1270;24320;-58
2022/01/30 03:08:03;;;;;;;19.10;2.00;;;;;;;5.86;62.49;99199.85;105794;1271;22576;-58
2022/01/30 03:10:35;;;;;;;9.40;1.10;;;;;;;5.84;62.58;99200.77;105911;1271;22568;-59
2022/01/30 03:13:06;;;;;;;10.30;1.50;;;;;;;5.82;63.28;99206.00;105745;1270;25325;-57
2022/01/30 03:15:37;;;;;;;17.30;1.00;;;;;;;5.79;63.69;99225.23;105701;1271;23367;-58
2022/01/30 03:18:08;;;;;;;8.10;1.00;;;;;;;5.75;63.33;99232.64;105660;1271;25430;-59
2022/01/30 03:20:41;;;;;;;11.40;1.50;;;;;;;5.72;62.86;99241.85;105839;1271;24300;-57
2022/01/30 03:23:12;;;;;;;15.80;1.00;;;;;;;5.71;62.77;99251.45;105872;1270;24440;-59
2022/01/30 03:25:44;;;;;;;11.50;1.10;;;;;;;5.72;62.23;99239.73;105929;1270;25271;-58
2022/01/30 03:28:15;;;;;;;12.10;0.80;;;;;;;5.72;62.40;99231.23;105743;1271;22554;-58
2022/01/30 03:30:48;;;;;;;8.60;0.90;;;;;;;5.72;62.31;99228.46;105640;1271;22556;-58
2022/01/30 03:33:19;;;;;;;12.20;1.00;;;;;;;5.72;62.30;99234.04;105597;1271;22541;-58
2022/01/30 03:35:50;;;;;;;15.70;1.00;;;;;;;5.71;62.44;99244.63;105903;1270;24316;-59
2022/01/30 03:38:22;;;;;;;9.40;0.90;;;;;;;5.68;62.87;99242.20;105874;1271;22578;-58
2022/01/30 03:40:54;;;;;;;14.00;1.40;;;;;;;5.66;63.06;99242.25;105585;1270;22541;-57
2022/01/30 03:43:25;;;;;;;17.40;0.90;;;;;;;5.63;63.34;99241.92;105621;1271;22535;-55
2022/01/30 03:45:57;;;;;;;8.30;0.90;;;;;;;5.61;63.20;99230.16;105588;1271;25527;-58
2022/01/30 03:48:28;;;;;;;17.60;1.00;;;;;;;5.60;63.42;99227.89;105673;1271;22810;-58
2022/01/30 03:50:59;;;;;;;14.80;0.90;;;;;;;5.59;63.25;99213.77;105879;1271;25378;-57
2022/01/30 03:53:31;;;;;;;13.20;0.70;;;;;;;5.57;63.19;99209.04;105755;1271;22550;-58
2022/01/30 03:56:02;;;;;;;12.40;0.80;;;;;;;5.56;63.03;99201.98;106079;1270;25049;-59
2022/01/30 03:58:36;;;;;;;12.90;1.10;;;;;;;5.56;62.85;99204.38;105624;1271;22569;-55
2022/01/30 04:01:07;;;;;;;15.10;1.10;;;;;;;5.55;63.21;99213.42;105829;1271;22542;-53
2022/01/30 04:03:39;;;;;;;10.30;1.40;;;;;;;5.54;63.10;99200.98;105705;1270;22555;-58
2022/01/30 04:06:12;;;;;;;17.50;1.50;;;;;;;5.53;62.91;99191.23;105781;1271;22544;-58
2022/01/30 04:08:44;;;;;;;9.50;0.80;;;;;;;5.52;62.88;99196.04;105841;1271;22549;-56
2022/01/30 04:11:16;;;;;;;12.00;1.20;;;;;;;5.51;62.53;99194.65;105578;1271;22555;-58
2022/01/30 04:13:48;;;;;;;13.30;1.80;;;;;;;5.49;62.51;99205.80;105911;1270;22561;-58
2022/01/30 04:16:20;;;;;;;14.10;1.10;;;;;;;5.49;62.70;99202.51;105984;1270;26604;-59
2022/01/30 04:18:52;;;;;;;14.30;1.10;;;;;;;5.47;62.69;99196.18;105844;1270;22565;-58
2022/01/30 04:21:24;;;;;;;11.70;1.10;;;;;;;5.46;62.41;99177.73;105766;1271;22635;-57
2022/01/30 04:23:55;;;;;;;9.00;0.80;;;;;;;5.45;62.37;99178.08;105724;1271;22833;-60
2022/01/30 04:26:26;;;;;;;9.50;0.80;;;;;;;5.44;62.26;99161.27;105703;1270;22547;-59
2022/01/30 04:28:58;;;;;;;11.90;1.20;;;;;;;5.43;62.42;99160.65;105742;1270;22552;-58
2022/01/30 04:31:30;;;;;;;11.90;0.70;;;;;;;5.42;62.52;99151.48;105731;1271;24376;-56
2022/01/30 04:34:04;;;;;;;7.20;0.60;;;;;;;5.39;62.86;99145.59;105860;1270;23114;-58
2022/01/30 04:36:42;;;;;;;10.40;0.80;;;;;;;5.37;63.16;99138.09;105866;1270;25236;-56
2022/01/30 04:39:31;;;;;;;13.10;0.80;;;;;;;5.34;63.57;99136.66;105909;1270;25801;-55
2022/01/30 04:42:24;;;;;;;12.90;3.10;;;;;;;5.30;63.34;99138.38;105714;1271;22769;-58
2022/01/30 04:53:37;;;;;;;9.60;0.60;;;;;;;5.30;62.98;99151.86;105803;1271;22663;-58
2022/01/30 04:59:09;;;;;;;12.30;1.00;;;;;;;5.35;62.94;99180.80;105720;1270;25283;-59
2022/01/30 05:01:56;;;;;;;8.50;0.60;;;;;;;5.36;62.67;99181.73;105786;1270;24234;-59
2022/01/30 05:04:42;;;;;;;12.00;1.00;;;;;;;5.37;62.76;99188.77;105807;1270;25372;-59
2022/01/30 05:07:29;;;;;;;5.60;0.50;;;;;;;5.38;62.43;99202.17;105630;1270;25326;-57
2022/01/30 05:10:03;;;;;;;13.80;0.90;;;;;;;5.39;62.53;99193.89;105663;1270;22571;-61
2022/01/30 05:12:42;;;;;;;12.80;0.90;;;;;;;5.39;62.59;99191.60;105790;1270;22553;-61
2022/01/30 05:15:17;;;;;;;8.50;1.30;;;;;;;5.38;62.76;99180.03;105801;1270;22972;-58
2022/01/30 05:17:50;;;;;;;9.20;1.00;;;;;;;5.37;62.43;99176.13;105912;1270;25365;-58
2022/01/30 05:20:21;;;;;;;9.40;1.30;;;;;;;5.36;62.76;99165.95;105813;1270;22601;-58
2022/01/30 05:22:53;;;;;;;11.60;1.20;;;;;;;5.35;62.39;99161.54;105892;1270;22551;-58
2022/01/30 05:25:25;;;;;;;9.50;0.90;;;;;;;5.34;62.40;99164.19;105718;1271;22560;-57
2022/01/30 05:27:57;;;;;;;7.10;0.80;;;;;;;5.33;62.44;99155.77;105749;1271;22580;-58
2022/01/30 05:30:29;;;;;;;16.70;1.20;;;;;;;5.32;62.63;99150.01;105919;1270;22545;-58
2022/01/30 05:33:01;;;;;;;11.10;0.60;;;;;;;5.30;62.56;99142.37;106010;1270;25563;-58
2022/01/30 05:35:34;;;;;;;8.50;0.70;;;;;;;5.29;62.64;99138.65;106009;1270;25335;-59
2022/01/30 05:38:06;;;;;;;11.80;0.70;;;;;;;5.27;62.88;99130.17;105852;1270;25423;-56
2022/01/30 05:40:39;;;;;;;8.80;1.40;;;;;;;5.25;63.06;99125.40;105836;1271;22586;-57
2022/01/30 05:43:11;;;;;;;7.70;0.80;;;;;;;5.22;63.22;99119.30;105894;1270;23962;-59
2022/01/30 05:45:47;;;;;;;8.60;0.80;;;;;;;5.18;63.45;99103.52;105874;1271;24554;-59
2022/01/30 05:48:19;;;;;;;8.10;0.70;;;;;;;5.14;63.51;99093.46;105836;1271;22531;-58
2022/01/30 05:50:51;;;;;;;6.80;0.60;;;;;;;5.09;63.72;99091.02;105862;1270;24376;-58
2022/01/30 05:53:22;;;;;;;5.60;0.40;;;;;;;5.05;63.91;99074.14;105846;1270;23096;-56
2022/01/30 05:55:54;;;;;;;10.50;0.80;;;;;;;5.03;64.03;99071.53;105876;1270;22540;-55
2022/01/30 05:58:25;;;;;;;10.40;0.80;;;;;;;5.02;64.17;99069.46;106014;1270;22541;-56
2022/01/30 06:00:56;;;;;;;7.10;0.60;;;;;;;5.02;64.41;99070.35;105823;1270;22554;-58
2022/01/30 06:21:37;;;;;;;13.40;0.80;;;;;;;4.71;66.01;99100.16;102902;1309;545188;-76
2022/01/30 06:24:08;;;;;;;13.80;0.90;;;;;;;4.68;66.06;99107.27;105749;1281;24281;-75
2022/01/30 06:26:39;;;;;;;7.30;0.70;;;;;;;4.67;66.93;99126.60;105984;1277;24515;-74
2022/01/30 06:29:10;;;;;;;19.20;2.80;;;;;;;4.59;68.35;99138.41;105959;1277;22657;-76
2022/01/30 06:31:41;;;;;;;6.50;0.80;;;;;;;4.49;69.16;99125.09;105958;1276;25285;-76
2022/01/30 06:34:12;;;;;;;15.70;1.10;;;;;;;4.42;68.99;99112.20;105914;1274;152751;-76
2022/01/30 06:36:43;;;;;;;7.30;1.00;;;;;;;4.39;69.01;99105.46;106195;1273;25361;-79
2022/01/30 06:39:14;;;;;;;9.90;0.70;;;;;;;4.38;68.96;99097.80;106294;1272;22537;-78
2022/01/30 06:41:45;;;;;;;9.70;1.30;;;;;;;4.39;68.91;99107.22;106173;1274;25375;-78
2022/01/30 06:44:16;;;;;;;6.10;1.00;;;;;;;4.42;68.39;99096.67;106175;1274;23439;-78
2022/01/30 06:46:47;;;;;;;8.80;0.60;;;;;;;4.46;68.16;99099.19;106149;1273;22550;-78
2022/01/30 06:49:18;;;;;;;9.40;0.80;;;;;;;4.50;67.78;99105.22;106075;1273;22642;-78
2022/01/30 06:51:49;;;;;;;7.00;0.70;;;;;;;4.55;67.54;99102.88;106109;1273;23251;-77
2022/01/30 06:54:20;;;;;;;8.10;0.70;;;;;;;4.57;67.81;99116.56;106067;1273;25319;-79
2022/01/30 06:56:51;;;;;;;10.90;1.20;;;;;;;4.57;68.46;99130.02;106339;1273;23844;-80
2022/01/30 06:59:23;;;;;;;7.10;0.80;;;;;;;4.54;68.64;99143.41;106783;1274;22732;-80
2022/01/30 07:01:54;;;;;;;9.40;0.70;;;;;;;4.50;68.81;99144.83;106647;1273;22543;-79
2022/01/30 07:04:25;;;;;;;8.70;0.70;;;;;;;4.49;68.72;99143.80;107435;1270;22491;-80
2022/01/30 07:06:57;;;;;;;9.40;1.20;;;;;;;4.49;68.78;99130.38;107424;1270;22529;-80
2022/01/30 07:09:28;;;;;;;13.30;1.20;;;;;;;4.48;68.87;99113.86;106975;1270;22534;-80
2022/01/30 07:11:59;;;;;;;7.00;0.70;;;;;;;4.46;69.00;99114.63;106922;1270;22570;-80
2022/01/30 07:14:30;;;;;;;9.10;2.10;;;;;;;4.44;69.21;99127.39;106966;1270;24224;-80
2022/01/30 07:17:01;;;;;;;16.20;1.20;;;;;;;4.41;69.39;99146.60;107133;1270;23032;-80
2022/01/30 07:19:32;;;;;;;6.90;0.70;;;;;;;4.39;69.81;99150.11;107343;1270;25496;-79
2022/01/30 07:22:02;;;;;;;12.30;1.20;;;;;;;4.35;70.29;99157.20;106723;1270;22577;-79
2022/01/30 07:24:33;;;;;;;14.10;2.20;;;;;;;4.30;70.61;99156.27;106629;1270;25516;-79
2022/01/30 07:27:04;;;;;;;11.00;0.70;;;;;;;4.25;70.71;99151.12;106629;1270;24338;-79
2022/01/30 07:29:35;;;;;;;10.90;0.90;;;;;;;4.21;71.02;99155.32;106599;1270;22551;-78
2022/01/30 07:32:08;;;;;;;11.30;0.80;;;;;;;4.18;71.31;99147.71;106644;1270;22490;-78
2022/01/30 07:34:39;;;;;;;10.20;1.20;;;;;;;4.16;71.24;99123.92;106626;1270;24275;-78
2022/01/30 07:37:12;;;;;;;8.20;0.70;;;;;;;4.12;71.58;99110.34;106868;1270;23985;-79
2022/01/30 07:40:45;;;;;;;12.70;1.00;;;;;;;4.10;71.71;99128.67;103523;1309;545312;-79
2022/01/30 07:43:16;;;;;;;11.40;1.00;;;;;;;4.06;71.71;99128.42;105964;1280;23922;-78
2022/01/30 07:45:47;;;;;;;10.70;0.90;;;;;;;4.08;71.64;99143.09;106114;1277;25901;-78
2022/01/30 07:48:18;;;;;;;15.10;1.00;;;;;;;4.12;71.57;99141.12;106651;1274;22603;-78
2022/01/30 07:50:49;;;;;;;8.60;0.90;;;;;;;4.18;71.28;99128.96;107549;1273;24243;-79
2022/01/30 07:53:20;;;;;;;19.60;2.30;;;;;;;4.23;70.85;99128.89;107194;1273;185198;-78
2022/01/30 07:55:51;;;;;;;6.40;0.80;;;;;;;4.28;70.68;99130.78;107573;1271;22581;-79
2022/01/30 09:26:39;;;;;;;18.90;1.80;;;;;;;5.14;65.22;99216.38;103443;1312;24253;-78
2022/01/30 09:29:08;;;;;;;14.80;2.30;;;;;;;5.15;65.27;99186.35;106608;1280;22560;-79
2022/01/30 09:31:36;;;;;;;13.30;1.50;;;;;;;5.17;65.33;99198.81;106240;1280;156352;-79
2022/01/30 09:34:04;;;;;;;9.70;1.30;;;;;;;5.21;65.16;99196.36;106577;1277;22578;-79
2022/01/30 09:36:32;;;;;;;8.70;1.10;;;;;;;5.24;65.45;99212.10;106561;1280;25395;-80
2022/01/30 09:39:02;;;;;;;17.50;1.90;;;;;;;5.25;65.40;99223.14;107487;1267;26567;-76
2022/01/30 09:41:30;;;;;;;9.20;1.00;;;;;;;5.23;65.72;99236.58;106963;1268;22540;-78
2022/01/30 09:44:01;;;;;;;13.00;1.40;;;;;;;5.19;65.99;99242.37;106929;1267;22531;-76
2022/01/30 09:46:31;;;;;;;10.90;0.90;;;;;;;5.15;66.35;99239.24;107024;1267;22537;-76
2022/01/30 09:49:00;;;;;;;14.00;1.40;;;;;;;5.09;66.99;99248.39;106845;1266;25341;-77
2022/01/30 09:51:28;;;;;;;15.40;1.70;;;;;;;5.03;66.71;99264.15;106801;1267;22578;-78
2022/01/30 09:53:57;;;;;;;14.20;1.30;;;;;;;5.00;67.02;99266.03;106519;1267;23043;-78
2022/01/30 09:56:26;;;;;;;10.70;1.00;;;;;;;4.94;67.51;99269.60;107495;1266;23182;-79
2022/01/30 09:58:55;;;;;;;15.80;1.20;;;;;;;4.87;67.93;99289.84;106822;1268;26581;-78
2022/01/30 10:01:30;;;;;;;10.40;1.00;;;;;;;4.75;68.87;99297.72;107045;1267;25204;-78
2022/01/30 10:03:59;;;;;;;14.80;1.20;;;;;;;4.61;69.33;99294.63;107336;1267;22551;-77
2022/01/30 10:06:33;;;;;;;18.80;1.20;;;;;;;4.52;70.25;99308.45;108681;1266;22518;-78
2022/01/30 10:09:23;;;;;;;16.70;1.30;;;;;;;4.45;70.13;99316.89;107179;1267;25318;-79
2022/01/30 10:12:01;;;;;;;16.50;1.60;;;;;;;4.44;70.61;99324.13;106739;1267;24298;-79
2022/01/30 10:14:29;;;;;;;7.50;0.80;;;;;;;4.43;70.39;99343.35;107085;1267;22531;-79
2022/01/30 10:16:57;;;;;;;9.50;1.20;;;;;;;4.48;69.89;99328.84;107010;1268;22614;-79
2022/01/30 10:19:26;;;;;;;15.40;1.70;;;;;;;4.54;69.95;99349.20;106911;1267;22541;-78
2022/01/30 10:22:07;;;;;;;13.50;1.50;;;;;;;4.57;70.34;99355.47;106716;1268;23078;-79
2022/01/30 10:24:40;;;;;;;22.10;1.30;;;;;;;4.53;71.31;99342.61;107432;1267;22532;-79
2022/01/30 10:27:21;;;;;;;15.70;1.20;;;;;;;4.47;71.42;99352.67;107425;1265;24242;-80
2022/01/30 10:29:55;;;;;;;;;;;;;;;4.42;71.95;99334.69;107542;1267;24226;-79
2022/01/30 10:32:23;;;;;;;12.30;1.10;;;;;;;4.38;72.76;99340.34;106828;1268;24368;-78
2022/01/30 10:35:01;;;;;;;17.80;1.50;;;;;;;4.35;72.56;99339.66;106821;1268;25684;-78
2022/01/30 10:37:30;;;;;;;8.30;1.00;;;;;;;4.35;72.70;99337.39;106710;1267;25319;-78
2022/01/30 10:40:07;;;;;;;16.60;2.40;;;;;;;4.36;72.68;99335.66;106794;1268;25476;-77
2022/01/30 10:42:42;;;;;;;15.70;1.40;;;;;;;4.38;72.84;99333.46;106807;1267;24184;-78
2022/01/30 10:45:24;;;;;;;13.60;1.30;;;;;;;4.40;72.70;99326.98;106672;1268;23691;-78
2022/01/30 10:48:09;;;;;;;14.70;1.60;;;;;;;4.42;72.67;99335.65;106561;1268;22544;-78
2022/01/30 10:50:39;;;;;;;14.60;3.00;;;;;;;4.46;72.82;99340.28;106639;1267;24256;-78
2022/01/30 10:53:16;;;;;;;13.80;1.50;;;;;;;4.51;72.89;99353.91;106462;1268;22533;-78
2022/01/30 10:55:45;;;;;;;19.00;1.40;;;;;;;4.55;72.61;99352.30;106617;1267;25263;-79
2022/01/30 10:58:16;;;;;;;10.70;1.60;;;;;;;4.56;72.34;99352.59;106585;1267;23510;-79
2022/01/30 11:00:51;;;;;;;11.80;1.00;;;;;;;4.56;72.29;99349.60;106565;1267;25363;-79
2022/01/30 11:03:40;;;;;;;14.50;1.60;;;;;;;4.55;71.92;99349.54;106674;1267;22670;-79
2022/01/30 11:06:11;;;;;;;12.60;1.20;;;;;;;4.55;71.84;99332.23;106998;1267;23975;-79
2022/01/30 11:08:43;;;;;;;13.20;1.80;;;;;;;4.55;71.55;99328.84;107148;1268;24162;-78
2022/01/30 11:11:23;;;;;;;17.70;1.80;;;;;;;4.57;71.35;99325.61;106911;1268;26586;-78
2022/01/30 11:14:13;;;;;;;13.20;1.30;;;;;;;4.59;71.35;99319.29;106756;1266;22543;-78
2022/01/30 11:16:57;;;;;;;10.70;1.40;;;;;;;4.63;70.54;99322.77;106589;1268;22541;-79
2022/01/30 11:19:26;;;;;;;17.90;1.70;;;;;;;4.68;70.04;99332.87;107268;1267;22588;-79
2022/01/30 11:21:58;;;;;;;17.10;2.20;;;;;;;4.74;69.40;99328.99;107126;1267;22608;-78
2022/01/30 11:24:27;;;;;;;17.80;1.50;;;;;;;4.79;69.05;99327.80;106856;1267;24847;-78
2022/01/30 11:26:56;;;;;;;20.20;1.60;;;;;;;4.84;68.74;99330.84;106796;1267;26459;-78
2022/01/30 11:29:24;;;;;;;16.10;1.60;;;;;;;4.89;68.18;99334.30;106798;1268;22690;-78
2022/01/30 11:31:53;;;;;;;15.50;1.70;;;;;;;4.95;67.91;99342.29;106675;1267;22550;-79
2022/01/30 11:34:23;;;;;;;18.10;1.50;;;;;;;4.98;68.25;99345.88;106773;1268;25387;-79
2022/01/30 11:36:54;;;;;;;19.00;2.30;;;;;;;4.99;67.43;99343.12;106721;1267;22545;-78
2022/01/30 11:39:22;;;;;;;18.70;1.90;;;;;;;5.02;68.01;99337.55;106780;1268;25376;-78
2022/01/30 11:42:13;;;;;;;19.90;1.70;;;;;;;5.03;67.41;99351.96;106598;1268;22518;-79
2022/01/30 11:44:43;;;;;;;16.90;1.40;;;;;;;5.06;67.30;99351.74;106597;1268;22534;-78
2022/01/30 11:47:25;;;;;;;20.30;1.40;;;;;;;5.08;67.25;99364.46;106689;1268;23076;-77
2022/01/30 11:50:05;;;;;;;15.20;1.40;;;;;;;5.10;67.28;99343.42;106653;1267;24201;-78
2022/01/30 11:52:51;;;;;;;;;;;;;;;5.10;67.14;99369.51;106911;1268;22525;-78
2022/01/30 11:56:03;;;;;;;11.90;1.10;;;;;;;5.12;66.47;99344.91;106877;1265;22734;-78
2022/01/30 11:58:46;;;;;;;12.60;1.80;;;;;;;5.14;67.13;99351.08;106583;1273;23336;-78
2022/01/30 12:01:36;;;;;;;20.00;1.50;;;;;;;5.15;66.92;99367.48;106525;1273;24303;-78
2022/01/30 12:04:13;;;;;;;15.30;1.60;;;;;;;5.16;66.39;99363.38;106252;1273;22593;-78
2022/01/30 12:06:52;;;;;;;15.80;1.10;;;;;;;5.17;66.32;99382.07;106221;1273;22629;-79
2022/01/30 12:09:29;;;;;;;13.00;1.10;;;;;;;5.20;66.28;99367.70;106352;1273;22652;-79
2022/01/30 12:12:05;;;;;;;23.30;2.60;;;;;;;5.22;65.64;99367.77;106340;1273;22550;-79
2022/01/30 12:14:58;;;;;;;19.70;2.10;;;;;;;5.26;64.94;99379.39;106114;1273;26399;-78
2022/01/30 12:17:59;;;;;;;22.60;1.60;;;;;;;5.31;64.62;99379.25;106232;1277;22559;-78
2022/01/30 12:20:30;;;;;;;16.70;1.60;;;;;;;5.32;65.11;99382.11;105873;1278;22598;-77
2022/01/30 12:22:59;;;;;;;18.20;2.30;;;;;;;5.32;64.71;99385.64;105929;1277;22570;-79
2022/01/30 12:25:37;;;;;;;28.90;6.00;;;;;;;5.32;64.88;99395.08;106057;1278;22709;-79
2022/01/30 12:28:10;;;;;;;22.30;2.30;;;;;;;5.31;65.18;99391.80;106104;1279;24298;-79
2022/01/30 12:30:47;;;;;;;25.60;3.70;;;;;;;5.29;65.16;99390.61;106044;1279;24271;-78
2022/01/30 12:33:34;;;;;;;23.20;3.50;;;;;;;5.29;64.99;99403.20;106136;1279;23339;-78
2022/01/30 12:36:11;;;;;;;16.70;2.00;;;;;;;5.28;65.03;99407.56;106267;1273;25535;-80
2022/01/30 12:38:40;;;;;;;19.70;2.40;;;;;;;5.29;64.42;99407.38;106574;1273;22644;-79
2022/01/30 12:41:16;;;;;;;16.50;2.40;;;;;;;5.29;65.08;99412.92;106457;1273;24176;-79
2022/01/30 12:43:45;;;;;;;12.40;1.70;;;;;;;5.28;65.20;99415.50;106566;1273;22542;-78
2022/01/30 12:46:14;;;;;;;16.40;2.70;;;;;;;5.27;65.32;99422.67;106423;1273;22590;-78
2022/01/30 12:48:58;;;;;;;18.20;2.40;;;;;;;5.25;65.30;99431.86;106352;1273;22833;-79
2022/01/30 12:51:27;;;;;;;20.90;2.80;;;;;;;5.23;65.14;99433.59;106501;1273;27281;-79
2022/01/30 12:53:58;;;;;;;16.10;1.70;;;;;;;5.22;65.02;99438.20;106682;1268;22529;-78
2022/01/30 12:56:28;;;;;;;21.10;1.90;;;;;;;5.21;64.95;99449.55;107218;1267;22522;-79
2022/01/30 12:59:06;;;;;;;16.60;1.60;;;;;;;5.21;65.06;99449.09;107147;1268;25521;-79
2022/01/30 13:01:36;;;;;;;20.90;2.30;;;;;;;5.20;64.99;99455.70;107067;1268;22528;-78
2022/01/30 13:04:06;;;;;;;15.60;2.20;;;;;;;5.20;64.90;99461.17;107129;1268;22547;-77
2022/01/30 13:06:44;;;;;;;17.60;2.60;;;;;;;5.21;64.72;99464.05;107025;1267;24221;-79
2022/01/30 13:09:25;;;;;;;17.20;2.00;;;;;;;5.21;64.87;99479.77;107332;1267;26020;-79
2022/01/30 13:12:17;;;;;;;19.70;1.80;;;;;;;5.20;65.27;99482.17;107488;1268;22768;-79
2022/01/30 13:18:21;;;;;;;;;;;;;;;;;;;;;
2022/01/30 13:20:49;;;;;;;17.10;2.00;;;;;;;5.18;64.90;99500.05;106752;1268;22743;-78
2022/01/30 13:23:26;;;;;;;19.60;2.80;;;;;;;5.18;65.16;99502.65;106624;1268;22539;-78
2022/01/30 13:25:54;;;;;;;28.60;2.70;;;;;;;5.19;64.78;99511.46;106735;1268;25743;-77
2022/01/30 13:28:22;;;;;;;25.30;2.60;;;;;;;5.22;64.83;99516.98;106565;1268;22480;-78
2022/01/30 13:30:51;;;;;;;23.60;3.40;;;;;;;5.22;64.52;99524.08;106565;1267;22691;-78
2022/01/30 13:33:20;;;;;;;16.70;2.70;;;;;;;5.23;64.50;99524.76;106762;1268;23461;-78
2022/01/30 13:35:48;;;;;;;16.60;2.30;;;;;;;5.23;64.88;99526.02;106580;1268;25314;-78
2022/01/30 13:38:19;;;;;;;22.40;2.30;;;;;;;5.23;64.35;99534.95;106619;1267;22529;-78
2022/01/30 13:40:51;;;;;;;;;;;;;;;5.24;64.41;99540.37;106753;1268;22533;-80
2022/01/30 13:43:26;;;;;;;26.30;3.50;;;;;;;5.24;63.85;99543.67;106793;1268;23557;-78
2022/01/30 13:48:44;;;;;;;18.50;1.70;;;;;;;5.26;64.06;99557.59;106860;1268;26599;-78
2022/01/30 13:51:20;;;;;;;22.60;2.60;;;;;;;5.27;63.88;99573.92;106957;1267;22527;-79
2022/01/30 13:54:05;;;;;;;22.20;2.90;;;;;;;5.29;63.64;99567.20;106882;1268;25390;-78
2022/01/30 13:56:37;;;;;;;19.00;2.10;;;;;;;5.32;63.56;99570.55;106778;1267;23081;-79
2022/01/30 13:59:06;;;;;;;20.50;2.00;;;;;;;5.32;63.46;99583.02;106892;1267;24376;-79
2022/01/30 14:01:34;;;;;;;15.60;1.90;;;;;;;5.32;63.45;99582.71;106842;1268;25266;-79
2022/01/30 14:04:09;;;;;;;23.10;2.80;;;;;;;5.33;63.36;99599.36;106994;1268;24255;-79
2022/01/30 14:06:42;;;;;;;19.10;2.40;;;;;;;5.33;63.65;99602.13;107204;1267;25255;-79
2022/01/30 14:09:12;;;;;;;22.20;1.90;;;;;;;5.32;63.77;99606.28;107292;1267;22646;-79
2022/01/30 14:11:43;;;;;;;22.80;2.10;;;;;;;5.31;63.56;99613.11;107304;1268;22607;-80
2022/01/30 14:14:15;;;;;;;19.30;1.60;;;;;;;5.32;63.36;99619.25;107069;1268;24159;-78
2022/01/30 14:16:47;;;;;;;21.40;2.30;;;;;;;5.33;63.16;99623.95;106960;1268;22557;-78
2022/01/30 14:19:21;;;;;;;21.20;2.00;;;;;;;5.33;63.22;99629.41;106872;1268;23367;-78
2022/01/30 14:21:53;;;;;;;22.60;1.70;;;;;;;5.33;63.50;99637.23;106652;1268;22552;-79
2022/01/30 14:24:25;;;;;;;22.10;3.10;;;;;;;5.32;63.38;99638.29;106682;1268;22532;-79